createdAt,value
2022-08-12T00:00:00.552Z,0.8
2022-08-12T00:01:10.258Z,0.6
2022-08-12T00:02:18.913Z,0.8
2022-08-12T00:03:27.663Z,0.5
2022-08-12T00:04:37.283Z,0.6
2022-08-12T00:05:58.317Z,0.5
2022-08-12T00:06:57.704Z,0.6
2022-08-12T00:08:06.382Z,0.7
2022-08-12T00:09:14.146Z,0.7
2022-08-12T00:10:23.829Z,0.6
2022-08-12T00:11:32.526Z,0.6
2022-08-12T00:12:41.450Z,0.6
2022-08-12T00:13:50.993Z,0.5
2022-08-12T00:14:58.683Z,0.4
2022-08-12T00:16:08.390Z,0.5
2022-08-12T00:17:17.043Z,0.8
2022-08-12T00:18:24.824Z,0.6
2022-08-12T00:19:34.497Z,0.7
2022-08-12T00:20:42.201Z,0.7
2022-08-12T00:21:50.858Z,0.7
2022-08-12T00:23:00.494Z,0.8
2022-08-12T00:24:09.233Z,0.6
2022-08-12T00:25:19.883Z,0.6
2022-08-12T00:26:29.550Z,0.5
2022-08-12T00:27:43.739Z,0.5
2022-08-12T00:28:49.902Z,0.7
2022-08-12T00:29:57.609Z,0.5
2022-08-12T00:31:07.255Z,0.7
2022-08-12T00:32:17.796Z,0.4
2022-08-12T00:33:25.620Z,0.5
2022-08-12T00:34:36.180Z,0.5
2022-08-12T00:35:45.861Z,0.5
2022-08-12T00:36:58.425Z,0.7
2022-08-12T00:38:06.186Z,0.5
2022-08-12T00:39:13.910Z,0.7
2022-08-12T00:40:23.532Z,0.7
2022-08-12T00:41:33.237Z,0.5
2022-08-12T00:42:41.295Z,0.8
2022-08-12T00:43:49.571Z,0.5
2022-08-12T00:44:58.239Z,0.7
2022-08-12T00:46:06.913Z,0.8
2022-08-12T00:47:23.997Z,0.7
2022-08-12T00:48:26.373Z,0.6
2022-08-12T00:49:35.513Z,0.6
2022-08-12T00:50:45.179Z,0.7
2022-08-12T00:51:52.998Z,0.5
2022-08-12T00:53:02.676Z,0.7
2022-08-12T00:54:12.358Z,0.5
2022-08-12T00:55:22.129Z,0.5
2022-08-12T00:56:31.793Z,0.6
2022-08-12T00:57:40.450Z,0.5
2022-08-12T00:58:50.146Z,0.5
2022-08-12T00:59:58.824Z,0.6
2022-08-12T01:01:07.518Z,0.3
2022-08-12T01:02:17.150Z,0.7
2022-08-12T01:03:26.801Z,0.9
2022-08-12T01:04:36.500Z,0.5
2022-08-12T01:05:45.204Z,0.8
2022-08-12T01:06:54.824Z,0.5
2022-08-12T01:08:04.510Z,0.9
2022-08-12T01:09:13.189Z,0.7
2022-08-12T01:10:27.472Z,0.8
2022-08-12T01:11:33.556Z,0.6
2022-08-12T01:12:41.466Z,0.7
2022-08-12T01:13:50.924Z,0.9
2022-08-12T01:14:59.570Z,0.7
2022-08-12T01:16:07.268Z,0.8
2022-08-12T01:17:16.967Z,0.7
2022-08-12T01:18:24.620Z,0.5
2022-08-12T01:19:33.319Z,0.8
2022-08-12T01:20:42.990Z,0.6
2022-08-12T01:21:51.684Z,0.8
2022-08-12T01:23:00.340Z,0.6
2022-08-12T01:24:27.931Z,0.9
2022-08-12T01:25:19.623Z,1.2
2022-08-12T01:26:28.344Z,1.3
2022-08-12T01:27:36.051Z,1.2
2022-08-12T01:28:45.710Z,1.3
2022-08-12T01:29:55.393Z,1.6
2022-08-12T01:31:05.099Z,1.5
2022-08-12T01:32:14.780Z,1.2
2022-08-12T01:33:24.499Z,1
2022-08-12T01:34:36.705Z,1
2022-08-12T01:35:44.857Z,1.1
2022-08-12T01:36:55.541Z,0.9
2022-08-12T01:38:05.267Z,0.5
2022-08-12T01:39:14.966Z,0.9
2022-08-12T01:40:31.870Z,0.7
2022-08-12T01:41:35.268Z,0.7
2022-08-12T01:42:44.985Z,0.7
2022-08-12T01:43:54.659Z,1
2022-08-12T01:45:04.395Z,0.8
2022-08-12T01:46:12.058Z,0.7
2022-08-12T01:47:20.747Z,0.8
2022-08-12T01:48:30.450Z,0.7
2022-08-12T01:49:38.139Z,0.9
2022-08-12T01:50:47.849Z,1
2022-08-12T01:52:16.180Z,0.8
2022-08-12T01:53:08.184Z,0.5
2022-08-12T01:54:17.860Z,0.9
2022-08-12T01:55:25.508Z,0.9
2022-08-12T01:56:35.263Z,0.9
2022-08-12T01:57:57.595Z,1.2
2022-08-12T01:58:54.685Z,1.1
2022-08-12T02:00:04.428Z,0.8
2022-08-12T02:01:13.179Z,0.7
2022-08-12T02:02:21.853Z,0.6
2022-08-12T02:03:30.529Z,0.8
2022-08-12T02:04:38.190Z,0.8
2022-08-12T02:05:46.912Z,0.8
2022-08-12T02:06:56.563Z,0.7
2022-08-12T02:08:04.262Z,0.6
2022-08-12T02:09:13.965Z,0.8
2022-08-12T02:10:49.733Z,0.4
2022-08-12T02:11:32.295Z,0.7
2022-08-12T02:12:42.122Z,0.9
2022-08-12T02:13:51.669Z,0.8
2022-08-12T02:15:01.297Z,0.9
2022-08-12T02:16:10.959Z,0.9
2022-08-12T02:17:20.627Z,0.8
2022-08-12T02:18:31.306Z,1.2
2022-08-12T02:19:40.015Z,0.8
2022-08-12T02:20:51.861Z,1
2022-08-12T02:22:01.313Z,1
2022-08-12T02:23:09.957Z,1.1
2022-08-12T02:24:18.628Z,1
2022-08-12T02:25:28.415Z,0.9
2022-08-12T02:26:37.130Z,0.9
2022-08-12T02:27:46.819Z,0.8
2022-08-12T02:28:55.452Z,0.5
2022-08-12T02:30:04.121Z,0.9
2022-08-12T02:31:13.933Z,0.9
2022-08-12T02:32:21.625Z,0.7
2022-08-12T02:33:30.366Z,1
2022-08-12T02:34:40.034Z,1
2022-08-12T02:35:48.699Z,1.1
2022-08-12T02:37:00.232Z,0.8
2022-08-12T02:38:08.195Z,0.8
2022-08-12T02:39:17.970Z,0.8
2022-08-12T02:40:28.591Z,0.9
2022-08-12T02:41:36.278Z,0.9
2022-08-12T02:42:45.972Z,0.7
2022-08-12T02:43:55.621Z,0.9
2022-08-12T02:45:03.302Z,0.6
2022-08-12T02:46:14.695Z,0.8
2022-08-12T02:47:55.980Z,0.8
2022-08-12T02:48:31.278Z,0.8
2022-08-12T02:49:40.949Z,0.8
2022-08-12T02:50:49.639Z,0.7
2022-08-12T02:51:58.362Z,0.5
2022-08-12T02:53:08.033Z,0.7
2022-08-12T02:54:15.732Z,0.8
2022-08-12T02:55:28.473Z,0.6
2022-08-12T02:56:34.044Z,0.7
2022-08-12T02:57:43.693Z,0.9
2022-08-12T02:58:52.363Z,0.5
2022-08-12T03:00:00.122Z,0.8
2022-08-12T03:01:09.887Z,0.8
2022-08-12T03:02:18.454Z,0.8
2022-08-12T03:03:27.129Z,0.8
2022-08-12T03:04:40.143Z,0.8
2022-08-12T03:05:47.486Z,0.9
2022-08-12T03:06:57.135Z,0.5
2022-08-12T03:08:06.834Z,0.7
2022-08-12T03:09:16.663Z,0.9
2022-08-12T03:10:37.443Z,0.8
2022-08-12T03:11:40.166Z,1.1
2022-08-12T03:12:49.195Z,0.9
2022-08-12T03:13:57.246Z,1
2022-08-12T03:15:04.957Z,0.9
2022-08-12T03:16:14.660Z,1.2
2022-08-12T03:17:23.316Z,0.8
2022-08-12T03:18:31.050Z,0.8
2022-08-12T03:20:08.570Z,0.8
2022-08-12T03:20:49.437Z,0.9
2022-08-12T03:22:08.563Z,0.7
2022-08-12T03:23:08.811Z,0.7
2022-08-12T03:24:16.493Z,1
2022-08-12T03:25:26.191Z,0.7
2022-08-12T03:26:34.852Z,0.9
2022-08-12T03:27:42.518Z,0.8
2022-08-12T03:28:52.326Z,1
2022-08-12T03:29:59.985Z,0.8
2022-08-12T03:31:08.682Z,0.8
2022-08-12T03:32:34.969Z,0.9
2022-08-12T03:33:26.997Z,0.8
2022-08-12T03:34:36.699Z,0.9
2022-08-12T03:35:46.347Z,0.9
2022-08-12T03:36:56.009Z,0.9
2022-08-12T03:38:05.688Z,1.1
2022-08-12T03:39:13.397Z,0.9
2022-08-12T03:40:23.093Z,0.7
2022-08-12T03:41:32.776Z,0.8
2022-08-12T03:42:40.673Z,1.1
2022-08-12T03:43:50.167Z,0.8
2022-08-12T03:44:58.875Z,1.1
2022-08-12T03:46:06.614Z,0.8
2022-08-12T03:47:16.317Z,0.7
2022-08-12T03:48:24.968Z,0.9
2022-08-12T03:49:33.649Z,0.8
2022-08-12T03:50:43.302Z,0.9
2022-08-12T03:51:50.975Z,0.7
2022-08-12T03:53:00.807Z,0.6
2022-08-12T03:54:11.230Z,0.9
2022-08-12T03:55:18.116Z,1.6
2022-08-12T03:56:27.779Z,1.1
2022-08-12T03:57:35.497Z,0.9
2022-08-12T03:58:44.142Z,1.4
2022-08-12T03:59:53.817Z,1.3
2022-08-12T04:01:01.547Z,1.3
2022-08-12T04:02:12.143Z,1.1
2022-08-12T04:03:21.830Z,1.1
2022-08-12T04:04:30.480Z,1
2022-08-12T04:05:54.792Z,1.4
2022-08-12T04:06:48.831Z,1.3
2022-08-12T04:07:58.723Z,0.9
2022-08-12T04:09:14.508Z,1
2022-08-12T04:10:17.885Z,0.9
2022-08-12T04:11:31.736Z,1
2022-08-12T04:12:37.326Z,0.8
2022-08-12T04:13:45.945Z,1.2
2022-08-12T04:14:55.673Z,0.9
2022-08-12T04:16:03.349Z,0.9
2022-08-12T04:17:13.021Z,0.7
2022-08-12T04:18:22.671Z,0.8
2022-08-12T04:19:31.380Z,1.1
2022-08-12T04:20:41.101Z,1
2022-08-12T04:22:01.442Z,1
2022-08-12T04:22:59.367Z,0.9
2022-08-12T04:24:09.058Z,0.9
2022-08-12T04:25:17.714Z,0.8
2022-08-12T04:26:26.403Z,1.1
2022-08-12T04:27:36.068Z,1.3
2022-08-12T04:28:43.716Z,1.2
2022-08-12T04:30:17.548Z,0.9
2022-08-12T04:31:02.996Z,0.9
2022-08-12T04:32:10.797Z,1
2022-08-12T04:33:20.465Z,1.1
2022-08-12T04:34:28.174Z,1
2022-08-12T04:35:36.860Z,0.8
2022-08-12T04:36:46.531Z,1.2
2022-08-12T04:37:57.601Z,0.9
2022-08-12T04:39:06.880Z,0.9
2022-08-12T04:40:14.524Z,0.6
2022-08-12T04:41:22.199Z,0.8
2022-08-12T04:42:31.018Z,0.9
2022-08-12T04:43:54.108Z,0.8
2022-08-12T04:44:51.306Z,1.1
2022-08-12T04:46:00.952Z,0.9
2022-08-12T04:47:09.609Z,1
2022-08-12T04:48:19.269Z,0.9
2022-08-12T04:49:27.997Z,0.9
2022-08-12T04:50:37.629Z,1.1
2022-08-12T04:51:53.407Z,1.2
2022-08-12T04:52:56.924Z,1.3
2022-08-12T04:54:05.584Z,0.8
2022-08-12T04:55:13.242Z,0.8
2022-08-12T04:56:22.907Z,0.9
2022-08-12T04:57:32.568Z,0.9
2022-08-12T04:58:40.219Z,0.9
2022-08-12T04:59:49.839Z,0.8
2022-08-12T05:00:58.515Z,0.8
2022-08-12T05:02:09.515Z,1.2
2022-08-12T05:03:18.961Z,1
2022-08-12T05:04:26.665Z,1.3
2022-08-12T05:05:36.555Z,1.1
2022-08-12T05:06:45.962Z,1.4
2022-08-12T05:07:55.616Z,0.7
2022-08-12T05:09:11.008Z,1
2022-08-12T05:10:13.992Z,0.8
2022-08-12T05:11:22.647Z,1.1
2022-08-12T05:12:31.432Z,0.8
2022-08-12T05:13:39.998Z,1.1
2022-08-12T05:14:49.771Z,1.4
2022-08-12T05:16:04.104Z,1.6
2022-08-12T05:17:09.044Z,1.4
2022-08-12T05:18:19.791Z,0.9
2022-08-12T05:19:28.327Z,1.5
2022-08-12T05:20:37.035Z,1.3
2022-08-12T05:21:46.727Z,1.4
2022-08-12T05:22:57.200Z,1.3
2022-08-12T05:24:06.090Z,1.4
2022-08-12T05:25:15.748Z,1.1
2022-08-12T05:26:24.388Z,1.1
2022-08-12T05:27:34.057Z,1.3
2022-08-12T05:28:42.728Z,1.5
2022-08-12T05:30:05.882Z,1.3
2022-08-12T05:31:03.079Z,0.9
2022-08-12T05:32:10.705Z,1.2
2022-08-12T05:33:19.359Z,0.8
2022-08-12T05:34:29.010Z,1
2022-08-12T05:35:36.829Z,1.1
2022-08-12T05:36:46.550Z,0.9
2022-08-12T05:37:55.214Z,0.7
2022-08-12T05:39:02.970Z,0.8
2022-08-12T05:40:12.679Z,0.9
2022-08-12T05:41:21.528Z,0.9
2022-08-12T05:42:34.296Z,1
2022-08-12T05:43:39.851Z,0.8
2022-08-12T05:44:47.501Z,0.8
2022-08-12T05:45:56.153Z,1
2022-08-12T05:47:04.828Z,1.4
2022-08-12T05:48:13.502Z,0.8
2022-08-12T05:49:23.183Z,0.9
2022-08-12T05:50:31.893Z,1
2022-08-12T05:51:41.925Z,1.1
2022-08-12T05:52:52.971Z,1.4
2022-08-12T05:54:00.955Z,1.2
2022-08-12T05:55:10.682Z,0.9
2022-08-12T05:56:19.264Z,1.1
2022-08-12T05:57:26.919Z,1
2022-08-12T05:58:36.610Z,1.1
2022-08-12T05:59:44.268Z,0.8
2022-08-12T06:00:52.976Z,0.7
2022-08-12T06:02:08.631Z,1
2022-08-12T06:03:11.395Z,0.5
2022-08-12T06:04:21.034Z,0.7
2022-08-12T06:05:30.847Z,0.9
2022-08-12T06:06:40.569Z,0.6
2022-08-12T06:08:01.047Z,0.9
2022-08-12T06:08:58.887Z,0.8
2022-08-12T06:10:07.672Z,0.9
2022-08-12T06:11:17.370Z,0.9
2022-08-12T06:12:25.146Z,1
2022-08-12T06:13:53.254Z,0.9
2022-08-12T06:14:45.388Z,0.8
2022-08-12T06:15:53.062Z,0.7
2022-08-12T06:17:02.803Z,0.6
2022-08-12T06:18:14.178Z,0.8
2022-08-12T06:19:22.103Z,1
2022-08-12T06:20:33.719Z,1
2022-08-12T06:21:41.412Z,1.2
2022-08-12T06:22:51.102Z,1
2022-08-12T06:24:00.782Z,0.8
2022-08-12T06:25:08.443Z,0.6
2022-08-12T06:26:18.140Z,0.8
2022-08-12T06:27:25.823Z,0.7
2022-08-12T06:28:34.466Z,0.5
2022-08-12T06:30:07.658Z,0.8
2022-08-12T06:31:22.493Z,0.7
2022-08-12T06:32:05.487Z,0.6
2022-08-12T06:33:24.677Z,0.7
2022-08-12T06:35:24.808Z,0.8
2022-08-12T06:35:49.018Z,1
2022-08-12T06:36:47.153Z,1.7
2022-08-12T06:37:57.844Z,0.5
2022-08-12T06:39:14.288Z,0.6
2022-08-12T06:40:17.131Z,0.6
2022-08-12T06:41:27.820Z,0.5
2022-08-12T06:42:37.477Z,0.6
2022-08-12T06:44:05.209Z,0.4
2022-08-12T06:44:56.821Z,0.5
2022-08-12T06:46:04.547Z,0.8
2022-08-12T06:47:13.321Z,0.6
2022-08-12T06:48:23.069Z,0.8
2022-08-12T06:49:30.740Z,0.7
2022-08-12T06:50:40.549Z,0.5
2022-08-12T06:51:50.131Z,0.6
2022-08-12T06:53:00.723Z,0.5
2022-08-12T06:54:10.404Z,0.5
2022-08-12T06:55:18.074Z,0.4
2022-08-12T06:56:46.247Z,0.4
2022-08-12T06:57:58.147Z,0.5
2022-08-12T06:58:48.090Z,0.4
2022-08-12T06:59:57.823Z,0.5
2022-08-12T07:01:06.602Z,0.3
2022-08-12T07:02:16.211Z,0.5
2022-08-12T07:03:25.847Z,0.4
2022-08-12T07:04:37.180Z,0.4
2022-08-12T07:05:46.206Z,0.4
2022-08-12T07:06:54.910Z,0.4
2022-08-12T07:08:04.992Z,0.4
2022-08-12T07:09:16.373Z,0.7
2022-08-12T07:10:24.063Z,0.3
2022-08-12T07:11:33.787Z,0.5
2022-08-12T07:12:42.708Z,0.4
2022-08-12T07:14:04.746Z,0.6
2022-08-12T07:15:02.929Z,0.4
2022-08-12T07:16:10.620Z,0.4
2022-08-12T07:17:20.324Z,0.3
2022-08-12T07:18:30.013Z,0.7
2022-08-12T07:19:44.967Z,0.4
2022-08-12T07:20:52.936Z,0.4
2022-08-12T07:22:02.839Z,0.5
2022-08-12T07:23:11.756Z,0.3
2022-08-12T07:24:22.509Z,0.2
2022-08-12T07:25:30.258Z,0.5
2022-08-12T07:26:41.028Z,0.6
2022-08-12T07:27:49.672Z,0.4
2022-08-12T07:28:57.525Z,0.5
2022-08-12T07:30:08.230Z,0.3
2022-08-12T07:31:17.238Z,0.6
2022-08-12T07:32:29.485Z,0.4
2022-08-12T07:33:37.365Z,0.3
2022-08-12T07:34:45.080Z,0.2
2022-08-12T07:35:54.781Z,0.3
2022-08-12T07:37:04.540Z,0.6
2022-08-12T07:38:14.207Z,2.9
2022-08-12T07:39:24.001Z,1.1
2022-08-12T07:40:32.570Z,0.3
2022-08-12T07:41:40.244Z,0.3
2022-08-12T07:42:50.065Z,0.3
2022-08-12T07:44:01.261Z,0.6
2022-08-12T07:45:07.495Z,0.3
2022-08-12T07:46:17.180Z,0.2
2022-08-12T07:47:26.867Z,0.6
2022-08-12T07:48:36.563Z,0.2
2022-08-12T07:50:03.823Z,0.2
2022-08-12T07:50:55.898Z,0.3
2022-08-12T07:52:05.587Z,0.2
2022-08-12T07:53:14.250Z,0.3
2022-08-12T07:54:22.967Z,0.5
2022-08-12T07:55:32.651Z,0.2
2022-08-12T07:56:41.316Z,0.2
2022-08-12T07:57:51.013Z,0.1
2022-08-12T07:59:00.680Z,0.2
2022-08-12T08:00:09.391Z,0.2
2022-08-12T08:01:19.128Z,0.4
2022-08-12T08:02:29.749Z,0.4
2022-08-12T08:03:47.466Z,0.2
2022-08-12T08:04:49.089Z,0.2
2022-08-12T08:05:57.825Z,0.1
2022-08-12T08:07:06.523Z,0.1
2022-08-12T08:08:16.244Z,0.2
2022-08-12T08:09:26.105Z,0.2
2022-08-12T08:10:35.781Z,0.2
2022-08-12T08:11:44.558Z,0.1
2022-08-12T08:12:54.252Z,0.2
2022-08-12T08:14:03.947Z,0.3
2022-08-12T08:15:11.640Z,0.2
2022-08-12T08:16:21.350Z,0.3
2022-08-12T08:17:30.140Z,0.5
2022-08-12T08:18:39.857Z,0.1
2022-08-12T08:20:03.468Z,0.2
2022-08-12T08:20:58.146Z,0.1
2022-08-12T08:22:07.820Z,0.1
2022-08-12T08:23:17.650Z,0.1
2022-08-12T08:24:25.328Z,0.1
2022-08-12T08:25:37.395Z,0.3
2022-08-12T08:26:44.652Z,0.2
2022-08-12T08:27:53.300Z,0.1
2022-08-12T08:29:02.176Z,0.1
2022-08-12T08:30:12.858Z,0.3
2022-08-12T08:31:21.596Z,0
2022-08-12T08:32:31.329Z,0.2
2022-08-12T08:34:04.583Z,0.2
2022-08-12T08:34:53.204Z,0.1
2022-08-12T08:36:02.127Z,0.1
2022-08-12T08:37:15.470Z,0.2
2022-08-12T08:38:30.794Z,0.3
2022-08-12T08:39:31.470Z,0.5
2022-08-12T08:40:41.109Z,0.5
2022-08-12T08:42:13.298Z,0.1
2022-08-12T08:42:59.387Z,0.1
2022-08-12T08:44:09.069Z,0.1
2022-08-12T08:45:18.714Z,0.2
2022-08-12T08:46:27.409Z,0.2
2022-08-12T08:47:37.065Z,0.1
2022-08-12T08:48:44.721Z,0.3
2022-08-12T08:49:53.389Z,0.2
2022-08-12T08:51:04.982Z,0.4
2022-08-12T08:52:11.829Z,0
2022-08-12T08:53:21.396Z,0.2
2022-08-12T08:54:30.058Z,0.1
2022-08-12T08:56:03.499Z,0.1
2022-08-12T08:56:50.445Z,0.1
2022-08-12T08:57:59.020Z,0.2
2022-08-12T08:59:08.675Z,0.2
2022-08-12T09:00:18.388Z,0.3
2022-08-12T09:01:37.253Z,0.1
2022-08-12T09:02:38.661Z,0.1
2022-08-12T09:04:21.639Z,0.3
2022-08-12T09:05:10.293Z,0.3
2022-08-12T09:06:09.558Z,0.1
2022-08-12T09:07:44.004Z,0.1
2022-08-12T09:08:30.862Z,0.2
2022-08-12T09:10:01.780Z,0.2
2022-08-12T09:10:53.310Z,0.2
2022-08-12T09:12:07.812Z,0.1
2022-08-12T09:13:23.537Z,0.1
2022-08-12T09:14:29.202Z,0.1
2022-08-12T09:15:35.183Z,0.3
2022-08-12T09:16:42.996Z,0.1
2022-08-12T09:17:52.355Z,0.1
2022-08-12T09:18:59.923Z,0.1
2022-08-12T09:20:08.616Z,0.2
2022-08-12T09:21:17.451Z,0.1
2022-08-12T09:22:28.701Z,0.2
2022-08-12T09:23:58.217Z,0.4
2022-08-12T09:24:46.422Z,0.1
2022-08-12T09:25:54.087Z,0.3
2022-08-12T09:27:04.855Z,0.1
2022-08-12T09:28:14.501Z,0.2
2022-08-12T09:30:09.503Z,0.1
2022-08-12T09:30:41.479Z,0.3
2022-08-12T09:32:04.421Z,0.3
2022-08-12T09:33:05.400Z,0.1
2022-08-12T09:34:27.085Z,0.2
2022-08-12T09:35:18.807Z,0.3
2022-08-12T09:36:30.842Z,0.2
2022-08-12T09:37:52.958Z,0.3
2022-08-12T09:38:58.671Z,0.1
2022-08-12T09:40:00.800Z,0
2022-08-12T09:42:10.253Z,0.3
2022-08-12T09:42:35.440Z,0.1
2022-08-12T09:43:31.981Z,0.2
2022-08-12T09:44:40.667Z,0.3
2022-08-12T09:46:07.181Z,0
2022-08-12T09:47:00.423Z,0.3
2022-08-12T09:48:10.612Z,0.1
2022-08-12T09:49:23.904Z,0.2
2022-08-12T09:50:30.917Z,0.2
2022-08-12T09:51:43.510Z,0.1
2022-08-12T09:52:49.257Z,0.2
2022-08-12T09:54:06.093Z,0.4
2022-08-12T09:55:57.249Z,0.1
2022-08-12T09:56:57.557Z,0
2022-08-12T09:58:07.268Z,0.1
2022-08-12T09:58:47.203Z,0.3
2022-08-12T10:00:14.156Z,0.1
2022-08-12T10:01:06.420Z,0.1
2022-08-12T10:02:43.511Z,0.1
2022-08-12T10:03:31.183Z,0.1
2022-08-12T10:04:34.894Z,0.2
2022-08-12T10:06:11.978Z,0.4
2022-08-12T10:06:57.557Z,0.4
2022-08-12T10:08:05.829Z,0.2
2022-08-12T10:09:15.515Z,0.2
2022-08-12T10:10:30.154Z,0.1
2022-08-12T10:11:41.347Z,0.1
2022-08-12T10:13:06.887Z,0.2
2022-08-12T10:13:56.190Z,0.4
2022-08-12T10:15:04.870Z,0.3
2022-08-12T10:16:18.501Z,0.2
2022-08-12T10:17:25.242Z,0.2
2022-08-12T10:18:35.537Z,0.1
2022-08-12T10:19:51.469Z,0
2022-08-12T10:20:53.292Z,0.1
2022-08-12T10:22:02.983Z,0.1
2022-08-12T10:23:12.871Z,0.3
2022-08-12T10:24:22.310Z,0.3
2022-08-12T10:26:18.826Z,0.2
2022-08-12T10:26:42.703Z,0.1
2022-08-12T10:28:04.315Z,0.2
2022-08-12T10:30:01.224Z,0
2022-08-12T10:30:39.168Z,0.2
2022-08-12T10:31:25.908Z,0.2
2022-08-12T10:32:43.309Z,0.1
2022-08-12T10:33:55.845Z,0.3
2022-08-12T10:34:56.849Z,0.1
2022-08-12T10:36:06.037Z,0.2
2022-08-12T10:37:15.716Z,0.1
2022-08-12T10:38:32.818Z,0.2
2022-08-12T10:39:44.350Z,0.2
2022-08-12T10:40:46.731Z,0.1
2022-08-12T10:42:00.099Z,0.2
2022-08-12T10:43:06.950Z,0.1
2022-08-12T10:44:16.844Z,0.1
2022-08-12T10:45:26.241Z,0.1
2022-08-12T10:46:36.936Z,0.1
2022-08-12T10:48:01.363Z,0.1
2022-08-12T10:48:58.923Z,0.4
2022-08-12T10:50:22.371Z,0.2
2022-08-12T10:51:51.416Z,0.2
2022-08-12T10:52:33.491Z,0.3
2022-08-12T10:53:44.729Z,0.2
2022-08-12T10:54:50.777Z,0.1
2022-08-12T10:56:00.417Z,0.2
2022-08-12T10:57:18.114Z,0.1
2022-08-12T10:58:27.743Z,0.1
2022-08-12T10:59:39.102Z,0.2
2022-08-12T11:00:45.409Z,0.1
2022-08-12T11:04:21.061Z,0.2
2022-08-12T11:04:21.761Z,0.2
2022-08-12T11:04:33.877Z,0.2
2022-08-12T11:07:04.180Z,0.1
2022-08-12T11:07:04.936Z,0.2
2022-08-12T11:08:33.078Z,0.1
2022-08-12T11:08:57.623Z,0.1
2022-08-12T11:10:06.259Z,0.2
2022-08-12T11:11:17.029Z,0.1
2022-08-12T11:12:36.409Z,0.1
2022-08-12T11:13:39.899Z,0.2
2022-08-12T11:14:48.693Z,0.1
2022-08-12T11:16:03.138Z,0.1
2022-08-12T11:17:35.172Z,0.1
2022-08-12T11:18:19.099Z,0.3
2022-08-12T11:19:27.296Z,0.2
2022-08-12T11:20:36.914Z,0.1
2022-08-12T11:21:51.318Z,0.1
2022-08-12T11:22:58.056Z,0.2
2022-08-12T11:24:07.904Z,0
2022-08-12T11:25:18.576Z,0.1
2022-08-12T11:26:28.219Z,0.3
2022-08-12T11:27:36.924Z,0.2
2022-08-12T11:28:50.513Z,0.2
2022-08-12T11:30:00.698Z,0.1
2022-08-12T11:31:05.999Z,0
2022-08-12T11:32:14.664Z,0.1
2022-08-12T11:34:03.555Z,0.3
2022-08-12T11:34:53.921Z,0.1
2022-08-12T11:35:45.595Z,0
2022-08-12T11:36:55.208Z,0.2
2022-08-12T11:38:04.864Z,0.2
2022-08-12T11:39:14.571Z,0.1
2022-08-12T11:40:24.185Z,0.2
2022-08-12T11:41:33.876Z,0.1
2022-08-12T11:42:46.247Z,0.1
2022-08-12T11:43:58.485Z,0.1
2022-08-12T11:45:05.066Z,0.2
2022-08-12T11:46:18.331Z,0
2022-08-12T11:47:24.255Z,0.1
2022-08-12T11:48:50.996Z,0.1
2022-08-12T11:49:45.722Z,0
2022-08-12T11:50:52.207Z,0.2
2022-08-12T11:52:01.879Z,0.2
2022-08-12T11:53:56.761Z,0.1
2022-08-12T11:54:22.229Z,0.1
2022-08-12T11:55:30.922Z,0.2
2022-08-12T11:56:42.830Z,0.1
2022-08-12T11:58:01.415Z,0.1
2022-08-12T12:02:00.268Z,0.1
2022-08-12T12:02:00.558Z,0.1
2022-08-12T12:02:34.053Z,0.2
2022-08-12T12:03:46.046Z,0.1
2022-08-12T12:04:53.807Z,0.2
2022-08-12T12:06:01.982Z,0
2022-08-12T12:07:11.711Z,0.1
2022-08-12T12:08:37.019Z,0.2
2022-08-12T12:09:31.994Z,0.1
2022-08-12T12:10:42.714Z,0.1
2022-08-12T12:11:52.348Z,0.1
2022-08-12T12:13:03.159Z,0.1
2022-08-12T12:14:12.676Z,0.2
2022-08-12T12:15:24.632Z,0.2
2022-08-12T12:16:38.377Z,0.1
2022-08-12T12:17:44.803Z,0.1
2022-08-12T12:18:54.519Z,0.1
2022-08-12T12:20:04.213Z,0.2
2022-08-12T12:21:12.877Z,0.1
2022-08-12T12:22:23.304Z,0.1
2022-08-12T12:23:32.629Z,0.2
2022-08-12T12:24:40.842Z,0.1
2022-08-12T12:25:59.762Z,0.2
2022-08-12T12:27:01.627Z,0
2022-08-12T12:28:19.929Z,0
2022-08-12T12:30:14.346Z,0.2
2022-08-12T12:30:32.146Z,0.2
2022-08-12T12:32:07.016Z,0.1
2022-08-12T12:32:53.231Z,0.2
2022-08-12T12:34:01.255Z,0.2
2022-08-12T12:35:13.205Z,0
2022-08-12T12:36:26.539Z,0.4
2022-08-12T12:38:03.382Z,0
2022-08-12T12:38:42.853Z,0.1
2022-08-12T12:39:54.976Z,0.1
2022-08-12T12:41:14.552Z,0.1
2022-08-12T12:42:42.247Z,0.2
2022-08-12T12:43:28.529Z,0.1
2022-08-12T12:44:38.556Z,0.1
2022-08-12T12:45:46.299Z,0.1
2022-08-12T12:46:55.538Z,0.1
2022-08-12T12:48:05.199Z,0.2
2022-08-12T12:49:15.273Z,0.1
2022-08-12T12:50:26.912Z,0.2
2022-08-12T12:51:48.530Z,0.1
2022-08-12T12:52:44.848Z,0.1
2022-08-12T12:54:05.985Z,0.1
2022-08-12T12:55:04.312Z,0
2022-08-12T12:56:13.002Z,0.1
2022-08-12T12:57:36.017Z,0.1
2022-08-12T12:58:31.297Z,0.1
2022-08-12T12:59:55.697Z,0.1
2022-08-12T13:00:51.613Z,0.1
2022-08-12T13:02:00.286Z,0.1
2022-08-12T13:03:18.925Z,0.1
2022-08-12T13:04:19.673Z,0.1
2022-08-12T13:05:29.347Z,0.2
2022-08-12T13:06:38.954Z,0
2022-08-12T13:07:49.210Z,0.9
2022-08-12T13:09:02.408Z,0.1
2022-08-12T13:10:08.927Z,0.1
2022-08-12T13:11:17.601Z,0.1
2022-08-12T13:12:26.278Z,0.1
2022-08-12T13:14:08.536Z,0.1
2022-08-12T13:14:45.538Z,0.1
2022-08-12T13:15:56.190Z,0
2022-08-12T13:17:06.056Z,0
2022-08-12T13:18:15.464Z,0
2022-08-12T13:19:37.349Z,0.2
2022-08-12T13:20:37.620Z,0
2022-08-12T13:21:46.405Z,0.1
2022-08-12T13:22:55.048Z,0.1
2022-08-12T13:24:07.668Z,0.1
2022-08-12T13:25:15.346Z,0
2022-08-12T13:26:26.063Z,0.1
2022-08-12T13:27:36.258Z,0.1
2022-08-12T13:28:45.331Z,0.2
2022-08-12T13:29:56.541Z,0.2
2022-08-12T13:31:04.599Z,0.1
2022-08-12T13:32:19.722Z,0
2022-08-12T13:33:24.902Z,0.1
2022-08-12T13:34:35.820Z,0
2022-08-12T13:36:03.234Z,0
2022-08-12T13:36:56.790Z,0.1
2022-08-12T13:38:05.678Z,0.2
2022-08-12T13:39:16.219Z,0.1
2022-08-12T13:40:25.034Z,0
2022-08-12T13:41:33.631Z,0
2022-08-12T13:42:43.285Z,0
2022-08-12T13:43:52.968Z,0.1
2022-08-12T13:45:03.237Z,0
2022-08-12T13:46:12.655Z,0.2
2022-08-12T13:47:21.988Z,0
2022-08-12T13:48:31.605Z,0.1
2022-08-12T13:49:54.209Z,0
2022-08-12T13:50:49.885Z,0
2022-08-12T13:51:59.543Z,0
2022-08-12T13:53:23.651Z,0.1
2022-08-12T13:54:19.863Z,0
2022-08-12T13:55:30.864Z,0.1
2022-08-12T13:56:39.174Z,0.1
2022-08-12T13:57:48.850Z,0.1
2022-08-12T13:58:58.486Z,0.1
2022-08-12T14:00:07.118Z,0.1
2022-08-12T14:01:16.788Z,0
2022-08-12T14:02:26.455Z,0
2022-08-12T14:03:49.958Z,0
2022-08-12T14:04:56.085Z,0.1
2022-08-12T14:05:57.343Z,0.1
2022-08-12T14:07:07.046Z,0
2022-08-12T14:08:18.686Z,0
2022-08-12T14:09:25.991Z,0.1
2022-08-12T14:10:36.081Z,0
2022-08-12T14:11:51.367Z,0
2022-08-12T14:12:55.819Z,0.2
2022-08-12T14:14:11.673Z,0.1
2022-08-12T14:15:14.672Z,0.1
2022-08-12T14:16:32.481Z,0.1
2022-08-12T14:17:37.933Z,0.1
2022-08-12T14:18:42.725Z,0
2022-08-12T14:19:54.349Z,0.1
2022-08-12T14:21:01.979Z,0
2022-08-12T14:22:11.605Z,0.1
2022-08-12T14:24:01.766Z,0
2022-08-12T14:24:31.864Z,0
2022-08-12T14:25:41.555Z,0
2022-08-12T14:26:50.560Z,0.1
2022-08-12T14:28:02.966Z,0
2022-08-12T14:29:10.514Z,0
2022-08-12T14:30:23.949Z,0.3
2022-08-12T14:31:32.351Z,0
2022-08-12T14:32:41.567Z,0
2022-08-12T14:33:52.058Z,0.1
2022-08-12T14:35:01.699Z,0
2022-08-12T14:36:10.388Z,0.1
2022-08-12T14:37:52.977Z,0
2022-08-12T14:38:31.671Z,0
2022-08-12T14:39:41.348Z,0
2022-08-12T14:40:50.972Z,0
2022-08-12T14:42:00.638Z,0.1
2022-08-12T14:43:09.273Z,0.1
2022-08-12T14:44:58.337Z,0
2022-08-12T14:45:37.361Z,0
2022-08-12T14:46:38.282Z,0
2022-08-12T14:47:47.960Z,0.1
2022-08-12T14:48:56.590Z,0.1
2022-08-12T14:50:41.849Z,0.2
2022-08-12T14:52:16.425Z,0
2022-08-12T14:53:26.970Z,0.2
2022-08-12T14:57:19.675Z,0
2022-08-12T14:58:25.836Z,0.1
2022-08-12T14:59:57.733Z,0
2022-08-12T15:00:50.935Z,0
2022-08-12T15:01:55.912Z,0.1
2022-08-12T15:03:06.311Z,0.1
2022-08-12T15:04:15.328Z,0
2022-08-12T15:06:00.794Z,0.1
2022-08-12T15:06:40.101Z,0
2022-08-12T15:07:50.218Z,0
2022-08-12T15:08:55.967Z,0
2022-08-12T15:10:06.617Z,0
2022-08-12T15:11:16.366Z,0
2022-08-12T15:12:26.028Z,0.1
2022-08-12T15:13:39.593Z,0.1
2022-08-12T15:14:47.398Z,0
2022-08-12T15:15:56.063Z,0
2022-08-12T15:17:05.768Z,0
2022-08-12T15:18:13.438Z,0
2022-08-12T15:20:11.136Z,0.1
2022-08-12T15:20:37.976Z,0
2022-08-12T15:22:36.446Z,0
2022-08-12T15:22:55.344Z,0
2022-08-12T15:24:01.219Z,0
2022-08-12T15:25:10.866Z,0
2022-08-12T15:26:27.506Z,0
2022-08-12T15:28:04.851Z,0
2022-08-12T15:28:42.922Z,0
2022-08-12T15:29:53.591Z,0
2022-08-12T15:31:03.296Z,0
2022-08-12T15:32:16.102Z,0
2022-08-12T15:33:24.624Z,0.2
2022-08-12T15:34:35.477Z,0
2022-08-12T15:35:50.046Z,0
2022-08-12T15:36:55.786Z,0
2022-08-12T15:38:09.530Z,0.2
2022-08-12T15:39:16.574Z,0
2022-08-12T15:40:29.932Z,0
2022-08-12T15:41:48.946Z,0
2022-08-12T15:42:50.910Z,0.1
2022-08-12T15:44:16.750Z,0.1
2022-08-12T15:45:08.516Z,0
2022-08-12T15:46:17.163Z,0.1
2022-08-12T15:47:27.046Z,0.1
2022-08-12T15:48:37.506Z,0
2022-08-12T15:49:55.249Z,0
2022-08-12T15:50:58.063Z,0.1
2022-08-12T15:52:06.798Z,0
2022-08-12T15:53:17.410Z,0.1
2022-08-12T15:54:31.200Z,0
2022-08-12T15:55:45.663Z,0.1
2022-08-12T15:56:48.449Z,0
2022-08-12T15:57:58.240Z,0
2022-08-12T15:59:07.976Z,0.2
2022-08-12T16:00:22.393Z,0.1
2022-08-12T16:01:28.360Z,0.1
2022-08-12T16:02:38.990Z,0
2022-08-12T16:03:59.066Z,0.1
2022-08-12T16:04:58.521Z,0
2022-08-12T16:06:10.677Z,0.2
2022-08-12T16:07:17.700Z,0.1
2022-08-12T16:08:27.997Z,0.1
2022-08-12T16:09:45.557Z,0
2022-08-12T16:10:45.729Z,0.1
2022-08-12T16:11:55.420Z,0.1
2022-08-12T16:13:04.090Z,0